createdAt,value
2022-12-31T00:01:20.455Z,8.51
2022-12-31T00:03:48.383Z,8.50
2022-12-31T00:06:21.232Z,8.47
2022-12-31T00:08:49.446Z,8.43
2022-12-31T00:11:17.511Z,8.41
2022-12-31T00:13:50.119Z,8.40
2022-12-31T00:16:20.510Z,8.41
2022-12-31T00:18:49.754Z,8.37
2022-12-31T00:21:17.856Z,8.34
2022-12-31T00:23:50.411Z,8.37
2022-12-31T00:26:20.420Z,8.37
2022-12-31T00:28:48.646Z,8.37
2022-12-31T00:31:22.372Z,8.33
2022-12-31T00:33:50.302Z,8.31
2022-12-31T00:36:22.380Z,8.31
2022-12-31T00:38:51.226Z,8.28
2022-12-31T00:41:23.765Z,8.31
2022-12-31T00:43:51.762Z,8.27
2022-12-31T00:46:19.867Z,8.24
2022-12-31T00:48:48.078Z,8.23
2022-12-31T00:51:17.862Z,8.21
2022-12-31T00:53:48.737Z,8.18
2022-12-31T00:56:21.606Z,8.17
2022-12-31T00:58:51.769Z,8.13
2022-12-31T01:01:21.504Z,8.13
2022-12-31T01:03:50.568Z,8.12
2022-12-31T01:06:18.538Z,8.09
2022-12-31T01:08:46.702Z,8.10
2022-12-31T01:11:20.331Z,8.09
2022-12-31T01:13:50.932Z,8.10
2022-12-31T01:16:20.097Z,8.09
2022-12-31T01:18:48.098Z,8.09
2022-12-31T01:21:16.152Z,8.10
2022-12-31T01:23:44.170Z,8.13
2022-12-31T01:26:13.483Z,8.11
2022-12-31T01:28:41.483Z,8.12
2022-12-31T01:31:10.925Z,8.13
2022-12-31T01:33:39.015Z,8.15
2022-12-31T01:36:25.898Z,8.16
2022-12-31T01:38:55.180Z,8.18
2022-12-31T01:41:27.890Z,8.19
2022-12-31T01:43:58.566Z,8.18
2022-12-31T01:46:38.658Z,8.17
2022-12-31T01:49:13.401Z,8.16
2022-12-31T01:51:41.447Z,8.14
2022-12-31T01:54:10.077Z,8.18
2022-12-31T01:56:48.444Z,8.19
2022-12-31T01:59:16.791Z,8.17
2022-12-31T02:01:49.351Z,8.18
2022-12-31T02:04:17.344Z,8.19
2022-12-31T02:06:56.700Z,8.19
2022-12-31T02:09:29.371Z,8.19
2022-12-31T02:11:57.326Z,8.22
2022-12-31T02:14:33.084Z,8.22
2022-12-31T02:17:00.889Z,8.24
2022-12-31T02:20:13.481Z,8.24
2022-12-31T02:23:06.030Z,8.24
2022-12-31T02:26:15.369Z,8.25
2022-12-31T02:29:08.333Z,8.24
2022-12-31T02:31:38.493Z,8.23
2022-12-31T02:34:15.324Z,8.23
2022-12-31T02:36:44.583Z,8.23
2022-12-31T02:39:12.473Z,8.25
2022-12-31T02:41:51.698Z,8.29
2022-12-31T02:44:28.558Z,8.33
2022-12-31T02:47:01.062Z,8.36
2022-12-31T02:49:54.941Z,8.38
2022-12-31T02:52:24.036Z,8.43
2022-12-31T02:55:00.435Z,8.45
2022-12-31T02:57:50.095Z,8.47
2022-12-31T03:00:36.626Z,8.47
2022-12-31T03:03:09.141Z,8.50
2022-12-31T03:05:41.551Z,8.49
2022-12-31T03:08:09.654Z,8.51
2022-12-31T03:10:37.604Z,8.53
2022-12-31T03:13:05.560Z,8.55
2022-12-31T03:15:34.518Z,8.54
2022-12-31T03:18:13.364Z,8.54
2022-12-31T03:21:01.815Z,8.55
2022-12-31T03:23:30.564Z,8.57
2022-12-31T03:25:58.810Z,8.57
2022-12-31T03:28:30.528Z,8.57
2022-12-31T03:31:02.484Z,8.58
2022-12-31T03:33:38.060Z,8.63
2022-12-31T03:36:10.722Z,8.81
2022-12-31T03:38:38.733Z,8.92
2022-12-31T03:41:06.706Z,9.26
2022-12-31T03:43:39.611Z,9.49
2022-12-31T03:46:07.664Z,9.57
2022-12-31T03:48:35.650Z,9.68
2022-12-31T03:51:03.534Z,9.72
2022-12-31T03:53:33.690Z,9.80
2022-12-31T03:56:01.576Z,9.92
2022-12-31T03:58:29.471Z,10.00
2022-12-31T04:00:57.333Z,10.09
2022-12-31T04:03:29.964Z,10.14
2022-12-31T04:05:58.196Z,10.16
2022-12-31T04:08:26.292Z,10.27
2022-12-31T04:10:54.148Z,10.31
2022-12-31T04:13:22.041Z,10.43
2022-12-31T04:15:52.219Z,10.55
2022-12-31T04:18:20.004Z,10.62
2022-12-31T04:20:47.966Z,10.76
2022-12-31T04:23:27.961Z,10.82
2022-12-31T04:25:55.769Z,10.87
2022-12-31T04:28:23.620Z,10.95
2022-12-31T04:30:51.379Z,10.97
2022-12-31T04:33:19.379Z,11.07
2022-12-31T04:35:47.178Z,11.17
2022-12-31T04:38:15.060Z,11.28
2022-12-31T04:41:05.038Z,11.30
2022-12-31T04:43:32.881Z,11.36
2022-12-31T04:46:00.748Z,11.38
2022-12-31T04:48:33.222Z,11.43
2022-12-31T04:51:01.172Z,11.42
2022-12-31T04:53:29.112Z,11.49
2022-12-31T04:55:57.003Z,11.49
2022-12-31T04:58:25.021Z,11.54
2022-12-31T05:00:57.623Z,11.54
2022-12-31T05:03:26.385Z,11.59
2022-12-31T05:05:54.765Z,11.64
2022-12-31T05:08:22.730Z,11.66
2022-12-31T05:10:50.874Z,11.63
2022-12-31T05:13:18.809Z,11.66
2022-12-31T05:15:47.012Z,11.67
2022-12-31T05:18:19.559Z,11.75
2022-12-31T05:20:48.459Z,11.79
2022-12-31T05:23:16.748Z,11.87
2022-12-31T05:25:49.273Z,11.88
2022-12-31T05:28:21.738Z,11.89
2022-12-31T05:30:54.447Z,11.89
2022-12-31T05:33:26.958Z,11.96
2022-12-31T05:35:59.519Z,12.00
2022-12-31T05:38:27.437Z,12.06
2022-12-31T05:41:04.981Z,12.10
2022-12-31T05:43:33.313Z,12.11
2022-12-31T05:46:05.070Z,12.15
2022-12-31T05:48:33.040Z,12.16
2022-12-31T05:51:05.589Z,12.18
2022-12-31T05:53:35.531Z,12.21
2022-12-31T05:56:03.489Z,12.19
2022-12-31T05:58:40.368Z,12.16
2022-12-31T06:01:08.313Z,12.19
2022-12-31T06:03:36.185Z,12.22
2022-12-31T06:06:09.161Z,12.16
2022-12-31T06:08:42.138Z,12.16
2022-12-31T06:11:09.986Z,12.17
2022-12-31T06:13:37.978Z,12.18
2022-12-31T06:16:09.959Z,12.18
2022-12-31T06:18:38.368Z,12.18
2022-12-31T06:21:06.505Z,12.22
2022-12-31T06:23:34.497Z,12.27
2022-12-31T06:26:09.244Z,12.27
2022-12-31T06:28:41.627Z,12.28
2022-12-31T06:31:10.502Z,12.32
2022-12-31T06:33:43.410Z,12.30
2022-12-31T06:36:14.567Z,12.30
2022-12-31T06:38:42.984Z,12.32
2022-12-31T06:41:13.116Z,12.35
2022-12-31T06:43:45.824Z,12.37
2022-12-31T06:46:26.064Z,12.36
2022-12-31T06:49:02.771Z,12.33
2022-12-31T06:51:30.616Z,12.27
2022-12-31T06:54:07.281Z,12.21
2022-12-31T06:56:35.435Z,12.15
2022-12-31T06:59:04.262Z,12.08
2022-12-31T07:01:38.819Z,12.02
2022-12-31T07:04:26.823Z,11.94
2022-12-31T07:07:00.737Z,11.88
2022-12-31T07:09:38.144Z,11.78
2022-12-31T07:12:47.867Z,11.76
2022-12-31T07:15:37.526Z,11.67
2022-12-31T07:18:17.647Z,11.61
2022-12-31T07:20:45.834Z,11.57
2022-12-31T07:23:13.959Z,11.51
2022-12-31T07:25:44.285Z,11.42
2022-12-31T07:28:30.669Z,11.37
2022-12-31T07:31:13.736Z,11.33
2022-12-31T07:34:02.229Z,11.30
2022-12-31T07:36:53.330Z,11.23
2022-12-31T07:39:29.192Z,11.16
2022-12-31T07:42:14.451Z,11.07
2022-12-31T07:44:49.833Z,10.95
2022-12-31T07:47:23.537Z,10.86
2022-12-31T07:49:51.926Z,10.81
2022-12-31T07:52:20.205Z,10.81
2022-12-31T07:54:48.172Z,10.79
2022-12-31T07:57:18.485Z,10.79
2022-12-31T08:00:10.496Z,10.75
2022-12-31T08:02:50.276Z,10.68
2022-12-31T08:05:30.081Z,10.67
2022-12-31T08:08:29.426Z,10.60
2022-12-31T08:11:13.637Z,10.57
2022-12-31T08:13:42.131Z,10.51
2022-12-31T08:16:13.747Z,10.47
2022-12-31T08:18:44.823Z,10.43
2022-12-31T08:21:34.823Z,10.39
2022-12-31T08:24:07.029Z,10.38
2022-12-31T08:26:41.105Z,10.39
2022-12-31T08:29:35.222Z,10.35
2022-12-31T08:32:08.397Z,10.33
2022-12-31T08:34:41.335Z,10.45
2022-12-31T08:37:20.857Z,10.71
2022-12-31T08:40:23.725Z,10.93
2022-12-31T08:43:20.195Z,11.06
2022-12-31T08:45:50.199Z,11.27
2022-12-31T08:48:26.950Z,11.48
2022-12-31T08:50:55.637Z,11.71
2022-12-31T08:53:23.850Z,11.85
2022-12-31T08:56:10.748Z,12.01
2022-12-31T08:58:53.913Z,12.03
2022-12-31T09:01:26.621Z,12.04
2022-12-31T09:04:19.360Z,12.18
2022-12-31T09:06:55.908Z,12.31
2022-12-31T09:09:42.637Z,12.43
2022-12-31T09:12:19.513Z,12.67
2022-12-31T09:14:59.859Z,12.85
2022-12-31T09:17:49.779Z,13.07
2022-12-31T09:20:42.479Z,13.26
2022-12-31T09:23:16.314Z,13.46
2022-12-31T09:25:59.827Z,13.67
2022-12-31T09:28:47.079Z,13.82
2022-12-31T09:31:22.207Z,13.97
2022-12-31T09:33:55.984Z,14.10
2022-12-31T09:36:36.204Z,14.27
2022-12-31T09:39:12.453Z,14.32
2022-12-31T09:42:12.483Z,14.48
2022-12-31T09:44:55.520Z,14.68
2022-12-31T09:47:47.774Z,14.72
2022-12-31T09:50:33.177Z,14.82
2022-12-31T09:53:22.998Z,14.93
2022-12-31T09:55:57.560Z,15.14
2022-12-31T09:58:53.536Z,15.24
2022-12-31T10:01:40.179Z,15.36
2022-12-31T10:04:11.942Z,15.45
2022-12-31T10:07:05.374Z,15.42
2022-12-31T10:09:55.432Z,15.44
2022-12-31T10:12:45.028Z,15.53
2022-12-31T10:15:21.168Z,15.50
2022-12-31T10:18:04.437Z,15.52
2022-12-31T10:21:02.605Z,15.56
2022-12-31T10:23:50.553Z,15.62
2022-12-31T10:26:43.023Z,15.71
2022-12-31T10:29:30.027Z,15.73
2022-12-31T10:32:17.534Z,15.72
2022-12-31T10:35:28.558Z,15.77
2022-12-31T10:38:27.278Z,15.76
2022-12-31T10:41:16.776Z,15.56
2022-12-31T10:44:09.163Z,15.40
2022-12-31T10:46:55.713Z,15.29
2022-12-31T10:49:31.013Z,15.29
2022-12-31T10:52:41.430Z,15.36
2022-12-31T10:55:21.741Z,15.51
2022-12-31T10:58:35.363Z,15.47
2022-12-31T11:01:18.262Z,15.25
2022-12-31T11:03:59.281Z,15.03
2022-12-31T11:06:46.141Z,14.88
2022-12-31T11:09:43.950Z,14.83
2022-12-31T11:12:30.072Z,14.83
2022-12-31T11:15:13.731Z,14.98
2022-12-31T11:18:00.553Z,15.11
2022-12-31T11:20:49.546Z,15.16
2022-12-31T11:23:55.635Z,15.15
2022-12-31T11:26:48.983Z,15.32
2022-12-31T11:29:25.969Z,15.36
2022-12-31T11:32:03.074Z,15.40
2022-12-31T11:34:40.136Z,15.56
2022-12-31T11:37:32.634Z,15.66
2022-12-31T11:40:32.844Z,15.79
2022-12-31T11:43:03.631Z,15.94
2022-12-31T11:45:55.319Z,16.03
2022-12-31T11:48:42.216Z,15.98
2022-12-31T11:51:37.418Z,15.90
2022-12-31T11:54:47.239Z,15.91
2022-12-31T11:57:32.864Z,15.91
2022-12-31T12:00:09.260Z,15.89
2022-12-31T12:02:44.843Z,15.88
2022-12-31T12:05:15.802Z,15.82
2022-12-31T12:07:47.746Z,15.84
2022-12-31T12:10:29.288Z,15.88
2022-12-31T12:13:01.660Z,15.79
2022-12-31T12:15:38.339Z,15.76
2022-12-31T12:18:10.222Z,15.65
2022-12-31T12:20:46.030Z,15.54
2022-12-31T12:23:16.403Z,15.47
2022-12-31T12:25:46.085Z,15.32
2022-12-31T12:28:20.845Z,15.27
2022-12-31T12:30:57.364Z,15.12
2022-12-31T12:33:31.282Z,14.97
2022-12-31T12:36:23.629Z,14.96
2022-12-31T12:39:17.566Z,14.86
2022-12-31T12:42:00.740Z,14.77
2022-12-31T12:44:29.114Z,14.71
2022-12-31T12:46:57.479Z,14.70
2022-12-31T12:49:32.198Z,14.69
2022-12-31T12:52:07.245Z,14.74
2022-12-31T12:55:24.595Z,14.71
2022-12-31T12:58:37.615Z,14.74
2022-12-31T13:01:13.105Z,14.67
2022-12-31T13:07:26.235Z,14.63
2022-12-31T13:10:07.621Z,14.56
2022-12-31T13:13:21.679Z,14.49
2022-12-31T13:16:21.117Z,14.48
2022-12-31T13:19:38.847Z,14.43
2022-12-31T13:22:16.363Z,14.38
2022-12-31T13:25:02.874Z,14.35
2022-12-31T13:27:35.691Z,14.28
2022-12-31T13:30:06.170Z,14.27
2022-12-31T13:32:57.624Z,14.23
2022-12-31T13:35:30.630Z,14.29
2022-12-31T13:38:13.575Z,14.25
2022-12-31T13:40:59.312Z,14.24
2022-12-31T13:43:50.702Z,14.22
2022-12-31T13:46:29.740Z,14.13
2022-12-31T13:49:00.100Z,14.10
2022-12-31T13:51:43.650Z,14.09
2022-12-31T13:54:26.541Z,14.08
2022-12-31T13:56:54.703Z,14.05
2022-12-31T13:59:36.930Z,13.99
2022-12-31T14:02:16.693Z,13.91
2022-12-31T14:04:57.823Z,13.84
2022-12-31T14:07:38.987Z,13.78
2022-12-31T14:10:16.216Z,13.71
2022-12-31T14:12:54.101Z,13.64
2022-12-31T14:15:35.102Z,13.57
2022-12-31T14:18:21.863Z,13.49
2022-12-31T14:21:20.346Z,13.39
2022-12-31T14:24:11.364Z,13.31
2022-12-31T14:26:51.157Z,13.20
2022-12-31T14:29:32.314Z,13.14
2022-12-31T14:32:19.151Z,13.07
2022-12-31T14:35:06.110Z,13.03
2022-12-31T14:37:54.849Z,13.03
2022-12-31T14:40:46.477Z,12.95
2022-12-31T14:43:54.220Z,12.95
2022-12-31T14:46:48.407Z,12.87
2022-12-31T14:49:56.901Z,12.81
2022-12-31T14:52:30.631Z,12.78
2022-12-31T14:55:00.212Z,12.71
2022-12-31T14:57:54.366Z,12.62
2022-12-31T15:00:35.420Z,12.50
2022-12-31T15:03:16.467Z,12.39
2022-12-31T15:06:02.224Z,12.30
2022-12-31T15:08:48.656Z,12.16
2022-12-31T15:11:30.756Z,12.09
2022-12-31T15:14:04.721Z,12.07
2022-12-31T15:16:54.690Z,12.06
2022-12-31T15:19:45.146Z,12.02
2022-12-31T15:22:37.941Z,11.98
2022-12-31T15:25:19.229Z,11.94
2022-12-31T15:27:51.975Z,11.88
2022-12-31T15:30:51.776Z,11.84
2022-12-31T15:33:32.158Z,11.76
2022-12-31T15:36:10.307Z,11.65
2022-12-31T15:38:40.270Z,11.63
2022-12-31T15:41:20.461Z,11.54
2022-12-31T15:44:00.893Z,11.48
2022-12-31T15:46:39.233Z,11.40
2022-12-31T15:49:20.637Z,11.32
2022-12-31T15:51:56.158Z,11.35
2022-12-31T15:54:27.042Z,11.34
2022-12-31T15:56:55.063Z,11.34
2022-12-31T15:59:24.055Z,11.29
2022-12-31T16:01:51.985Z,11.28
2022-12-31T16:04:21.131Z,11.26
2022-12-31T16:06:51.255Z,11.25
2022-12-31T16:09:22.494Z,11.24
2022-12-31T16:11:50.592Z,11.19
2022-12-31T16:14:21.890Z,11.18
2022-12-31T16:16:55.328Z,11.12
2022-12-31T16:19:36.027Z,11.10
2022-12-31T16:22:09.572Z,11.10
2022-12-31T16:24:55.201Z,11.07
2022-12-31T16:27:26.249Z,11.06
2022-12-31T16:30:00.554Z,11.04
2022-12-31T16:32:28.619Z,11.00
2022-12-31T16:34:56.766Z,10.95
2022-12-31T16:37:24.936Z,10.93
2022-12-31T16:39:59.075Z,10.86
2022-12-31T16:42:30.048Z,10.83
2022-12-31T16:44:58.626Z,10.80
2022-12-31T16:47:36.564Z,10.75
2022-12-31T16:50:11.109Z,10.68
2022-12-31T16:52:41.059Z,10.67
2022-12-31T16:55:15.478Z,10.68
2022-12-31T16:57:44.205Z,10.70
2022-12-31T17:00:17.278Z,10.70
2022-12-31T17:02:47.825Z,10.73
2022-12-31T17:05:20.663Z,10.71
2022-12-31T17:07:48.523Z,10.66
2022-12-31T17:10:20.999Z,10.65
2022-12-31T17:13:29.839Z,10.65
2022-12-31T17:15:47.284Z,10.63
2022-12-31T17:18:21.469Z,10.59
2022-12-31T17:20:50.214Z,10.55
2022-12-31T17:23:27.568Z,10.56
2022-12-31T17:26:04.561Z,10.54
2022-12-31T17:28:38.947Z,10.50
2022-12-31T17:31:28.059Z,10.49
2022-12-31T17:33:56.822Z,10.46
2022-12-31T17:36:25.104Z,10.46
2022-12-31T17:38:53.118Z,10.43
2022-12-31T17:41:27.825Z,10.44
2022-12-31T17:43:56.438Z,10.46
2022-12-31T17:46:25.558Z,10.48
2022-12-31T17:49:01.029Z,10.51
2022-12-31T17:51:29.058Z,10.53
2022-12-31T17:54:02.102Z,10.53
2022-12-31T17:56:30.724Z,10.54
2022-12-31T17:59:04.150Z,10.56
2022-12-31T18:01:32.432Z,10.54
2022-12-31T18:04:01.889Z,10.54
2022-12-31T18:06:30.213Z,10.54
2022-12-31T18:08:58.674Z,10.53
2022-12-31T18:11:27.048Z,10.50
2022-12-31T18:13:55.691Z,10.47
2022-12-31T18:16:23.983Z,10.46
2022-12-31T18:18:52.117Z,10.48
2022-12-31T18:21:39.841Z,10.49
2022-12-31T18:24:08.549Z,10.51
2022-12-31T18:26:36.502Z,10.50
2022-12-31T18:29:21.183Z,10.50
2022-12-31T18:31:50.121Z,10.50
2022-12-31T18:34:18.663Z,10.50
2022-12-31T18:36:46.888Z,10.49
2022-12-31T18:39:14.888Z,10.49
2022-12-31T18:41:46.943Z,10.51
2022-12-31T18:44:15.305Z,10.48
2022-12-31T18:46:43.391Z,10.48
2022-12-31T18:49:11.302Z,10.47
2022-12-31T18:51:39.515Z,10.48
2022-12-31T18:54:08.053Z,10.52
2022-12-31T18:56:52.529Z,10.53
2022-12-31T18:59:25.211Z,10.54
2022-12-31T19:01:53.158Z,10.56
2022-12-31T19:04:27.530Z,10.56
2022-12-31T19:06:55.750Z,10.61
2022-12-31T19:09:48.393Z,10.61
2022-12-31T19:12:18.102Z,10.67
2022-12-31T19:14:46.742Z,10.69
2022-12-31T19:17:19.577Z,10.70
2022-12-31T19:19:47.660Z,10.69
2022-12-31T19:22:16.713Z,10.69
2022-12-31T19:24:44.752Z,10.69
2022-12-31T19:27:15.487Z,10.68
2022-12-31T19:29:43.513Z,10.65
2022-12-31T19:32:16.083Z,10.62
2022-12-31T19:34:43.961Z,10.62
2022-12-31T19:37:16.501Z,10.62
2022-12-31T19:39:44.467Z,10.58
2022-12-31T19:42:17.654Z,10.56
2022-12-31T19:44:45.567Z,10.54
2022-12-31T19:47:14.665Z,10.50
2022-12-31T19:49:42.649Z,10.49
2022-12-31T19:52:10.603Z,10.48
2022-12-31T19:54:43.264Z,10.47
2022-12-31T19:57:11.154Z,10.44
2022-12-31T19:59:39.269Z,10.42
2022-12-31T20:02:07.273Z,10.38
2022-12-31T20:04:35.367Z,10.32
2022-12-31T20:07:03.273Z,10.30
2022-12-31T20:09:31.129Z,10.24
2022-12-31T20:11:58.938Z,10.19
2022-12-31T20:14:26.888Z,10.19
2022-12-31T20:16:55.037Z,10.17
2022-12-31T20:19:28.585Z,10.17
2022-12-31T20:22:01.605Z,10.11
2022-12-31T20:24:29.438Z,10.10
2022-12-31T20:26:57.431Z,10.08
2022-12-31T20:29:37.564Z,10.04
2022-12-31T20:32:05.631Z,10.00
2022-12-31T20:34:33.641Z,10.00
2022-12-31T20:37:01.626Z,9.98
2022-12-31T20:39:29.773Z,9.94
2022-12-31T20:41:57.612Z,9.96
2022-12-31T20:44:25.612Z,9.92
2022-12-31T20:46:53.496Z,9.91
2022-12-31T20:49:37.492Z,9.90
2022-12-31T20:52:09.552Z,9.87
2022-12-31T20:54:38.691Z,9.81
2022-12-31T20:57:06.732Z,9.79
2022-12-31T20:59:37.103Z,9.75
2022-12-31T21:02:21.076Z,9.69
2022-12-31T21:04:49.653Z,9.68
2022-12-31T21:07:17.634Z,9.57
2022-12-31T21:09:47.823Z,9.48
2022-12-31T21:12:34.254Z,9.48
2022-12-31T21:15:03.666Z,9.46
2022-12-31T21:17:31.872Z,9.41
2022-12-31T21:19:59.690Z,9.32
2022-12-31T21:22:27.695Z,9.26
2022-12-31T21:24:55.567Z,9.25
2022-12-31T21:27:23.478Z,9.24
2022-12-31T21:30:17.819Z,9.19
2022-12-31T21:32:39.379Z,9.17
2022-12-31T21:35:41.117Z,9.13
2022-12-31T21:37:58.088Z,9.10
2022-12-31T21:40:27.733Z,9.10
2022-12-31T21:42:55.691Z,9.12
2022-12-31T21:45:23.656Z,9.11
2022-12-31T21:48:10.081Z,9.12
2022-12-31T21:50:38.033Z,9.14
2022-12-31T21:53:06.082Z,9.10
2022-12-31T21:55:52.513Z,9.12
2022-12-31T21:58:28.437Z,9.10
2022-12-31T22:01:16.078Z,9.06
2022-12-31T22:03:44.197Z,9.04
2022-12-31T22:06:17.459Z,8.98
2022-12-31T22:08:45.984Z,8.94
2022-12-31T22:11:14.135Z,8.93
2022-12-31T22:13:42.371Z,8.92
2022-12-31T22:16:10.430Z,8.88
2022-12-31T22:18:42.268Z,8.86
2022-12-31T22:21:19.432Z,8.87
2022-12-31T22:23:57.685Z,8.84
2022-12-31T22:26:27.451Z,8.82
2022-12-31T22:29:00.272Z,8.76
2022-12-31T22:31:31.157Z,8.73
2022-12-31T22:33:59.484Z,8.69
2022-12-31T22:36:27.580Z,8.69
2022-12-31T22:38:56.964Z,8.67
2022-12-31T22:41:25.291Z,8.68
2022-12-31T22:44:02.252Z,8.67
2022-12-31T22:46:31.349Z,8.66
2022-12-31T22:49:00.050Z,8.60
2022-12-31T22:51:56.550Z,8.58
2022-12-31T22:54:16.242Z,8.51
2022-12-31T22:56:44.132Z,8.52
2022-12-31T22:59:16.802Z,8.49
2022-12-31T23:01:44.775Z,8.46
2022-12-31T23:04:13.365Z,8.43
2022-12-31T23:06:47.045Z,8.42
2022-12-31T23:09:34.411Z,8.40
2022-12-31T23:12:02.730Z,8.37
2022-12-31T23:14:48.978Z,8.35
2022-12-31T23:17:37.047Z,8.33
2022-12-31T23:20:25.032Z,8.32
2022-12-31T23:23:11.136Z,8.33
2022-12-31T23:25:49.941Z,8.31
2022-12-31T23:28:23.036Z,8.26
2022-12-31T23:30:52.599Z,8.25
2022-12-31T23:33:22.207Z,8.24
2022-12-31T23:35:50.295Z,8.20
2022-12-31T23:38:18.868Z,8.18
2022-12-31T23:40:46.919Z,8.15
2022-12-31T23:43:20.871Z,8.11
2022-12-31T23:45:52.475Z,8.08
2022-12-31T23:48:20.628Z,8.04
2022-12-31T23:50:54.440Z,8.00
2022-12-31T23:53:25.396Z,7.98
2022-12-31T23:55:53.541Z,7.94
2022-12-31T23:58:22.192Z,7.93
